LLM2235 USRR-USTR
Flight info
| Callsign | LLM2235 |
|---|---|
| Flight time | N/A |
| Altitude | 38000 |
| Route | ANIKI1W ANIKI T797 NERUG NERUG1N |
| Aircraft | B736/M-SDE2E3FGHIRWXY/LB1 |
Departure
| Time | 2026-04-24 17:08 |
|---|---|
| Airport | Surgut International Airport (USRR) |
Arrival
| Time | N/A |
|---|---|
| Airport | Roshchino International Airport (USTR) |
| Time | Latitude | Longitude | Altitude | Speed | Heading |
|---|---|---|---|---|---|
| 2026-04-24 16:51 | 61.34093 | 73.40597 | 188 ft | 0 kts | 180° |
| 2026-04-24 16:58 | 61.34094 | 73.40597 | 188 ft | 1 kts | 180° |
| 2026-04-24 16:58 | 61.34108 | 73.40597 | 188 ft | 2 kts | 179° |
| 2026-04-24 16:58 | 61.34123 | 73.40597 | 189 ft | 2 kts | 180° |
| 2026-04-24 16:59 | 61.34137 | 73.40597 | 189 ft | 1 kts | 180° |
| 2026-04-24 16:59 | 61.34148 | 73.40597 | 189 ft | 2 kts | 168° |
| 2026-04-24 16:59 | 61.34172 | 73.40564 | 190 ft | 2 kts | 124° |
| 2026-04-24 17:00 | 61.34179 | 73.40536 | 190 ft | 2 kts | 103° |
| 2026-04-24 17:00 | 61.34180 | 73.40505 | 190 ft | 0 kts | 88° |
| 2026-04-24 17:02 | 61.34180 | 73.40563 | 190 ft | 9 kts | 88° |
| 2026-04-24 17:03 | 61.34181 | 73.40817 | 190 ft | 10 kts | 89° |
| 2026-04-24 17:03 | 61.34182 | 73.40978 | 190 ft | 11 kts | 89° |
| 2026-04-24 17:03 | 61.34183 | 73.41135 | 190 ft | 10 kts | 89° |
| 2026-04-24 17:04 | 61.34184 | 73.41289 | 190 ft | 10 kts | 89° |
| 2026-04-24 17:04 | 61.34185 | 73.41635 | 186 ft | 12 kts | 89° |
| 2026-04-24 17:04 | 61.34185 | 73.41839 | 183 ft | 15 kts | 88° |
| 2026-04-24 17:05 | 61.34187 | 73.42076 | 180 ft | 16 kts | 88° |
| 2026-04-24 17:05 | 61.34188 | 73.42317 | 179 ft | 15 kts | 89° |
| 2026-04-24 17:05 | 61.34272 | 73.42542 | 178 ft | 0 kts | 30° |
| 2026-04-24 17:06 | 61.34381 | 73.42645 | 181 ft | 13 kts | 331° |
| 2026-04-24 17:06 | 61.34396 | 73.42552 | 182 ft | 0 kts | 270° |
| 2026-04-24 17:07 | 61.34396 | 73.42409 | 183 ft | 37 kts | 269° |
| 2026-04-24 17:07 | 61.34385 | 73.39496 | 216 ft | 153 kts | 269° |
| 2026-04-24 17:08 | 61.34385 | 73.35015 | 1324 ft | 162 kts | 270° |
| 2026-04-24 17:08 | 61.34153 | 73.32790 | 1927 ft | 164 kts | 238° |
| 2026-04-24 17:08 | 61.33314 | 73.31078 | 2319 ft | 175 kts | 224° |
| 2026-04-24 17:09 | 61.32299 | 73.26190 | 3012 ft | 200 kts | 247° |
| 2026-04-24 17:09 | 61.30968 | 73.20508 | 3646 ft | 237 kts | 244° |
| 2026-04-24 17:10 | 61.30240 | 73.17339 | 4068 ft | 252 kts | 244° |
| 2026-04-24 17:10 | 61.27929 | 73.07458 | 6160 ft | 258 kts | 244° |
| 2026-04-24 17:11 | 61.25569 | 72.97379 | 8269 ft | 262 kts | 244° |
| 2026-04-24 17:12 | 61.21576 | 72.80273 | 11642 ft | 271 kts | 245° |